createdAt,value
2018-01-03T00:00:07.978Z,5.20
2018-01-03T00:02:35.503Z,5.20
2018-01-03T00:05:03.798Z,5.10
2018-01-03T00:07:31.375Z,5.10
2018-01-03T00:09:58.908Z,5.10
2018-01-03T00:12:26.446Z,5.10
2018-01-03T00:14:54.048Z,5.10
2018-01-03T00:17:21.587Z,5.10
2018-01-03T00:19:49.145Z,5.00
2018-01-03T00:22:16.747Z,5.00
2018-01-03T00:24:44.291Z,5.00
2018-01-03T00:27:11.820Z,5.00
2018-01-03T00:29:40.355Z,4.90
2018-01-03T00:32:07.877Z,4.90
2018-01-03T00:34:35.431Z,4.90
2018-01-03T00:37:03.170Z,4.90
2018-01-03T00:39:30.695Z,4.90
2018-01-03T00:41:58.986Z,4.90
2018-01-03T00:44:27.474Z,4.90
2018-01-03T00:46:55.774Z,4.90
2018-01-03T00:49:24.083Z,4.90
2018-01-03T00:51:51.695Z,4.90
2018-01-03T00:54:19.242Z,4.90
2018-01-03T00:56:46.798Z,4.90
2018-01-03T00:59:14.619Z,4.90
2018-01-03T01:01:42.155Z,4.90
2018-01-03T01:04:09.690Z,4.90
2018-01-03T01:06:38.039Z,4.90
2018-01-03T01:09:05.573Z,4.90
2018-01-03T01:11:33.094Z,4.90
2018-01-03T01:14:00.699Z,4.90
2018-01-03T01:16:29.010Z,5.00
2018-01-03T01:18:56.550Z,5.00
2018-01-03T01:21:25.080Z,5.00
2018-01-03T01:23:52.603Z,5.00
2018-01-03T01:26:20.902Z,5.10
2018-01-03T01:28:48.466Z,5.10
2018-01-03T01:31:16.781Z,5.10
2018-01-03T01:33:44.310Z,5.10
2018-01-03T01:36:11.882Z,5.10
2018-01-03T01:38:39.431Z,5.10
2018-01-03T01:41:06.977Z,5.10
2018-01-03T01:43:34.698Z,5.10
2018-01-03T01:46:02.230Z,5.20
2018-01-03T01:48:29.762Z,5.20
2018-01-03T01:50:58.295Z,5.20
2018-01-03T01:53:25.828Z,5.20
2018-01-03T01:55:54.120Z,5.30
2018-01-03T01:58:22.473Z,5.30
2018-01-03T02:00:49.998Z,5.20
2018-01-03T02:03:17.554Z,5.30
2018-01-03T02:05:45.893Z,5.40
2018-01-03T02:08:13.420Z,5.40
2018-01-03T02:10:40.970Z,5.40
2018-01-03T02:13:09.505Z,5.40
2018-01-03T02:15:37.028Z,5.40
2018-01-03T02:18:04.559Z,5.40
2018-01-03T02:20:32.130Z,5.40
2018-01-03T02:22:59.654Z,5.40
2018-01-03T02:25:27.944Z,5.50
2018-01-03T02:27:56.467Z,5.40
2018-01-03T02:30:23.999Z,5.40
2018-01-03T02:32:52.289Z,5.40
2018-01-03T02:35:20.645Z,5.40
2018-01-03T02:37:48.166Z,5.40
2018-01-03T02:40:15.715Z,5.40
2018-01-03T02:42:44.054Z,5.40
2018-01-03T02:45:11.754Z,5.40
2018-01-03T02:47:39.279Z,5.40
2018-01-03T02:50:07.068Z,5.40
2018-01-03T02:52:34.600Z,5.40
2018-01-03T02:55:02.894Z,5.40
2018-01-03T02:57:31.234Z,5.40
2018-01-03T02:59:58.754Z,5.40
2018-01-03T03:02:27.055Z,5.30
2018-01-03T03:04:54.627Z,5.30
2018-01-03T03:07:22.154Z,5.30
2018-01-03T03:09:49.685Z,5.30
2018-01-03T03:12:17.259Z,5.30
2018-01-03T03:14:44.782Z,5.30
2018-01-03T03:17:13.131Z,5.30
2018-01-03T03:19:40.798Z,5.30
2018-01-03T03:22:08.324Z,5.30
2018-01-03T03:24:36.626Z,5.20
2018-01-03T03:27:04.207Z,5.20
2018-01-03T03:29:31.731Z,5.30
2018-01-03T03:31:59.265Z,5.30
2018-01-03T03:34:26.987Z,5.30
2018-01-03T03:36:55.294Z,5.30
2018-01-03T03:39:23.593Z,5.30
2018-01-03T03:41:51.290Z,5.30
2018-01-03T03:44:18.823Z,5.30
2018-01-03T03:46:47.106Z,5.40
2018-01-03T03:49:15.638Z,5.40
2018-01-03T03:51:43.168Z,5.40
2018-01-03T03:54:11.458Z,5.30
2018-01-03T03:56:39.799Z,5.40
2018-01-03T03:59:07.467Z,5.40
2018-01-03T04:01:34.991Z,5.40
2018-01-03T04:04:03.533Z,5.40
2018-01-03T04:06:31.059Z,5.40
2018-01-03T04:08:59.350Z,5.40
2018-01-03T04:11:27.878Z,5.40
2018-01-03T04:13:55.406Z,5.40
2018-01-03T04:16:23.748Z,5.30
2018-01-03T04:18:51.515Z,5.30
2018-01-03T04:21:19.039Z,5.40
2018-01-03T04:23:47.333Z,5.40
2018-01-03T04:26:15.658Z,5.40
2018-01-03T04:28:43.178Z,5.30
2018-01-03T04:31:10.706Z,5.30
2018-01-03T04:33:38.279Z,5.40
2018-01-03T04:36:05.810Z,5.40
2018-01-03T04:38:34.095Z,5.40
2018-01-03T04:41:03.147Z,5.40
2018-01-03T04:43:30.726Z,5.40
2018-01-03T04:45:58.252Z,5.40
2018-01-03T04:48:26.576Z,5.30
2018-01-03T04:50:54.114Z,5.30
2018-01-03T04:53:21.658Z,5.30
2018-01-03T04:55:49.234Z,5.30
2018-01-03T04:58:17.528Z,5.40
2018-01-03T05:00:45.823Z,5.40
2018-01-03T05:03:14.374Z,5.30
2018-01-03T05:05:41.898Z,5.30
2018-01-03T05:08:09.421Z,5.40
2018-01-03T05:10:37.161Z,5.40
2018-01-03T05:13:04.706Z,5.40
2018-01-03T05:15:32.996Z,5.30
2018-01-03T05:18:01.326Z,5.30
2018-01-03T05:20:28.851Z,5.30
2018-01-03T05:22:57.138Z,5.40
2018-01-03T05:25:25.660Z,5.50
2018-01-03T05:27:53.178Z,5.40
2018-01-03T05:30:20.703Z,5.40
2018-01-03T05:32:48.396Z,5.50
2018-01-03T05:35:15.914Z,5.50
2018-01-03T05:37:44.201Z,5.50
2018-01-03T05:40:12.551Z,5.50
2018-01-03T05:42:40.083Z,5.50
2018-01-03T05:45:07.616Z,5.60
2018-01-03T05:47:35.946Z,5.60
2018-01-03T05:50:03.490Z,5.60
2018-01-03T05:52:31.794Z,5.70
2018-01-03T05:55:00.125Z,5.80
2018-01-03T05:57:27.650Z,5.70
2018-01-03T05:59:55.948Z,5.90
2018-01-03T06:02:23.650Z,5.90
2018-01-03T06:04:51.170Z,6.00
2018-01-03T06:07:19.484Z,6.10
2018-01-03T06:09:47.077Z,6.00
2018-01-03T06:12:14.615Z,6.10
2018-01-03T06:14:42.915Z,6.20
2018-01-03T06:17:10.602Z,6.20
2018-01-03T06:19:38.132Z,6.30
2018-01-03T06:22:06.428Z,6.30
2018-01-03T06:24:34.954Z,6.40
2018-01-03T06:27:02.479Z,6.40
2018-01-03T06:29:30.010Z,6.40
2018-01-03T06:31:57.578Z,6.50
2018-01-03T06:34:25.126Z,6.60
2018-01-03T06:36:52.650Z,6.60
2018-01-03T06:39:20.218Z,6.70
2018-01-03T06:41:47.744Z,6.80
2018-01-03T06:44:15.271Z,6.80
2018-01-03T06:46:43.006Z,6.90
2018-01-03T06:49:10.534Z,7.00
2018-01-03T06:51:38.870Z,7.10
2018-01-03T06:54:06.530Z,7.10
2018-01-03T06:56:34.056Z,7.10
2018-01-03T06:59:02.347Z,7.20
2018-01-03T07:01:30.687Z,7.20
2018-01-03T07:03:58.218Z,7.20
2018-01-03T07:06:26.516Z,7.20
2018-01-03T07:08:54.092Z,7.20
2018-01-03T07:11:21.626Z,7.30
2018-01-03T07:13:50.657Z,7.30
2018-01-03T07:16:18.239Z,7.30
2018-01-03T07:18:45.775Z,7.40
2018-01-03T07:21:13.306Z,7.40
2018-01-03T07:23:40.998Z,7.40
2018-01-03T07:26:08.553Z,7.50
2018-01-03T07:28:36.076Z,7.50
2018-01-03T07:31:04.416Z,7.60
2018-01-03T07:33:31.943Z,7.50
2018-01-03T07:36:00.244Z,7.60
2018-01-03T07:38:27.833Z,7.60
2018-01-03T07:40:55.370Z,7.60
2018-01-03T07:43:23.659Z,7.70
2018-01-03T07:45:52.091Z,7.70
2018-01-03T07:48:19.983Z,7.60
2018-01-03T07:50:47.511Z,7.70
2018-01-03T07:53:15.099Z,7.60
2018-01-03T07:55:42.642Z,7.60
2018-01-03T07:58:11.055Z,7.60
2018-01-03T08:00:38.730Z,7.60
2018-01-03T08:03:06.270Z,7.60
2018-01-03T08:05:34.576Z,7.60
2018-01-03T08:08:02.213Z,7.60
2018-01-03T08:10:29.743Z,7.50
2018-01-03T08:12:57.310Z,7.50
2018-01-03T08:15:25.572Z,7.50
2018-01-03T08:17:53.887Z,7.50
2018-01-03T08:20:21.409Z,7.40
2018-01-03T08:22:49.027Z,7.50
2018-01-03T08:25:16.558Z,7.50
2018-01-03T08:27:44.859Z,7.50
2018-01-03T08:30:13.406Z,7.50
2018-01-03T08:32:41.154Z,7.50
2018-01-03T08:35:08.706Z,7.50
2018-01-03T08:37:37.052Z,7.50
2018-01-03T08:40:04.602Z,7.50
2018-01-03T08:42:32.146Z,7.60
2018-01-03T08:44:59.862Z,7.60
2018-01-03T08:47:27.422Z,7.60
2018-01-03T08:49:54.962Z,7.60
2018-01-03T08:52:22.537Z,7.60
2018-01-03T08:54:50.078Z,7.60
2018-01-03T08:57:18.382Z,7.60
2018-01-03T08:59:46.895Z,7.60
2018-01-03T09:02:14.475Z,7.50
2018-01-03T09:04:42.038Z,7.60
2018-01-03T09:07:09.618Z,7.60
2018-01-03T09:09:37.143Z,7.60
2018-01-03T09:12:05.196Z,7.60
2018-01-03T09:14:32.781Z,7.60
2018-01-03T09:17:00.323Z,7.50
2018-01-03T09:19:27.863Z,7.60
2018-01-03T09:21:56.210Z,7.60
2018-01-03T09:24:23.743Z,7.60
2018-01-03T09:26:51.287Z,7.80
2018-01-03T09:29:19.629Z,8.20
2018-01-03T09:31:47.163Z,8.20
2018-01-03T09:34:14.690Z,8.40
2018-01-03T09:36:42.290Z,8.40
2018-01-03T09:39:10.578Z,8.30
2018-01-03T09:41:38.891Z,8.20
2018-01-03T09:44:06.572Z,8.20
2018-01-03T09:46:34.115Z,8.20
2018-01-03T09:49:02.414Z,8.10
2018-01-03T09:51:29.999Z,8.10
2018-01-03T09:53:57.653Z,8.20
2018-01-03T09:56:25.948Z,8.50
2018-01-03T09:58:53.506Z,8.50
2018-01-03T10:01:21.794Z,8.40
2018-01-03T10:03:50.099Z,8.20
2018-01-03T10:06:17.786Z,8.20
2018-01-03T10:08:45.352Z,8.10
2018-01-03T10:11:12.938Z,8.00
2018-01-03T10:13:40.694Z,8.00
2018-01-03T10:16:08.229Z,7.90
2018-01-03T10:18:35.808Z,7.90
2018-01-03T10:21:04.205Z,7.80
2018-01-03T10:23:31.802Z,7.80
2018-01-03T10:25:59.346Z,7.70
2018-01-03T10:28:27.881Z,7.80
2018-01-03T10:30:55.417Z,7.70
2018-01-03T10:33:24.811Z,7.70
2018-01-03T10:35:52.385Z,7.70
2018-01-03T10:38:19.918Z,7.70
2018-01-03T10:40:47.480Z,7.70
2018-01-03T10:43:15.092Z,7.70
2018-01-03T10:45:42.630Z,7.70
2018-01-03T10:48:10.158Z,7.70
2018-01-03T10:50:37.763Z,7.60
2018-01-03T10:53:05.359Z,7.50
2018-01-03T10:55:32.886Z,7.40
2018-01-03T10:58:00.515Z,7.40
2018-01-03T11:00:28.055Z,7.40
2018-01-03T11:02:55.590Z,7.40
2018-01-03T11:05:23.947Z,7.40
2018-01-03T11:07:52.234Z,7.40
2018-01-03T11:10:19.759Z,7.40
2018-01-03T11:12:47.425Z,7.40
2018-01-03T11:15:14.966Z,7.30
2018-01-03T11:20:46.850Z,7.20
2018-01-03T11:23:14.383Z,7.20
2018-01-03T11:25:42.683Z,7.30
2018-01-03T11:28:10.394Z,7.30
2018-01-03T11:30:37.922Z,7.40
2018-01-03T11:33:06.210Z,7.50
2018-01-03T11:35:34.551Z,7.60
2018-01-03T11:38:02.076Z,7.60
2018-01-03T11:40:29.614Z,7.60
2018-01-03T11:42:57.974Z,7.60
2018-01-03T11:45:25.498Z,7.60
2018-01-03T11:47:53.830Z,7.60
2018-01-03T11:50:21.667Z,7.50
2018-01-03T11:52:49.971Z,7.50
2018-01-03T11:55:17.519Z,7.50
2018-01-03T11:57:45.879Z,7.50
2018-01-03T12:00:13.408Z,7.50
2018-01-03T12:02:40.945Z,7.50
2018-01-03T12:05:09.307Z,7.40
2018-01-03T12:07:36.834Z,7.40
2018-01-03T12:10:04.391Z,7.40
2018-01-03T12:12:32.135Z,7.40
2018-01-03T12:14:59.719Z,7.40
2018-01-03T12:17:28.019Z,7.40
2018-01-03T12:19:56.355Z,7.40
2018-01-03T12:22:23.882Z,7.40
2018-01-03T12:24:52.175Z,7.30
2018-01-03T12:27:19.759Z,7.30
2018-01-03T12:29:47.288Z,7.30
2018-01-03T12:32:14.835Z,7.20
2018-01-03T12:34:42.414Z,7.20
2018-01-03T12:37:09.943Z,7.20
2018-01-03T12:39:37.475Z,7.20
2018-01-03T12:42:05.050Z,7.10
2018-01-03T12:44:32.575Z,7.10
2018-01-03T12:47:00.098Z,7.10
2018-01-03T12:49:28.466Z,7.10
2018-01-03T12:51:56.004Z,7.10
2018-01-03T12:54:23.550Z,7.00
2018-01-03T12:56:51.293Z,6.90
2018-01-03T12:59:18.970Z,6.90
2018-01-03T13:01:46.942Z,6.90
2018-01-03T13:04:15.299Z,6.80
2018-01-03T13:06:42.822Z,6.80
2018-01-03T13:09:11.134Z,6.70
2018-01-03T13:11:38.831Z,6.60
2018-01-03T13:14:06.362Z,6.60
2018-01-03T13:16:34.654Z,6.50
2018-01-03T13:19:02.999Z,6.40
2018-01-03T13:21:30.542Z,6.40
2018-01-03T13:23:58.138Z,6.30
2018-01-03T13:26:25.757Z,6.30
2018-01-03T13:28:54.081Z,6.20
2018-01-03T13:31:21.909Z,6.20
2018-01-03T13:33:50.518Z,6.10
2018-01-03T13:36:18.814Z,6.00
2018-01-03T13:38:46.356Z,6.00
2018-01-03T13:41:13.931Z,6.00
2018-01-03T13:43:41.454Z,6.00
2018-01-03T13:46:08.982Z,6.00
2018-01-03T13:48:37.427Z,6.00
2018-01-03T13:51:05.184Z,6.00
2018-01-03T13:53:32.734Z,6.00
2018-01-03T13:56:00.597Z,6.00
2018-01-03T13:58:29.017Z,5.90
2018-01-03T14:00:56.567Z,5.90
2018-01-03T14:03:24.988Z,5.90
2018-01-03T14:05:52.518Z,5.80
2018-01-03T14:08:20.144Z,5.80
2018-01-03T14:10:47.771Z,5.80
2018-01-03T14:13:15.326Z,5.80
2018-01-03T14:15:42.859Z,5.90
2018-01-03T14:18:10.450Z,5.90
2018-01-03T14:20:38.084Z,5.90
2018-01-03T14:23:05.624Z,5.90
2018-01-03T14:25:33.975Z,6.00
2018-01-03T14:28:01.508Z,6.00
2018-01-03T14:30:29.047Z,6.00
2018-01-03T14:32:56.654Z,6.00
2018-01-03T14:35:24.193Z,6.00
2018-01-03T14:37:51.735Z,6.00
2018-01-03T14:40:19.486Z,6.10
2018-01-03T14:42:47.028Z,6.10
2018-01-03T14:45:15.373Z,6.10
2018-01-03T14:47:42.978Z,6.10
2018-01-03T14:50:11.283Z,6.20
2018-01-03T14:52:40.294Z,6.30
2018-01-03T14:55:08.945Z,6.20
2018-01-03T14:57:36.470Z,6.30
2018-01-03T15:00:04.006Z,6.30
2018-01-03T15:02:32.359Z,6.30
2018-01-03T15:04:59.886Z,6.30
2018-01-03T15:07:27.492Z,6.30
2018-01-03T15:09:55.178Z,6.30
2018-01-03T15:12:22.707Z,6.30
2018-01-03T15:14:50.279Z,6.40
2018-01-03T15:17:18.070Z,6.40
2018-01-03T15:19:45.603Z,6.40
2018-01-03T15:22:13.902Z,6.30
2018-01-03T15:24:42.409Z,6.30
2018-01-03T15:27:09.955Z,6.30
2018-01-03T15:29:37.497Z,6.40
2018-01-03T15:32:05.219Z,6.40
2018-01-03T15:34:32.790Z,6.40
2018-01-03T15:37:00.317Z,6.40
2018-01-03T15:39:27.909Z,6.40
2018-01-03T15:41:56.207Z,6.50
2018-01-03T15:44:24.510Z,6.40
2018-01-03T15:46:55.908Z,6.40
2018-01-03T15:49:23.431Z,6.40
2018-01-03T15:51:50.959Z,6.40
2018-01-03T15:54:18.559Z,6.40
2018-01-03T15:56:47.605Z,6.40
2018-01-03T15:59:15.326Z,6.40
2018-01-03T16:01:43.082Z,6.40
2018-01-03T16:04:10.754Z,6.40
2018-01-03T16:06:38.291Z,6.50
2018-01-03T16:09:06.789Z,6.50
2018-01-03T16:11:34.467Z,6.40
2018-01-03T16:14:02.001Z,6.40
2018-01-03T16:16:29.741Z,6.50
2018-01-03T16:18:57.318Z,6.50
2018-01-03T16:21:24.868Z,6.50
2018-01-03T16:23:52.797Z,6.40
2018-01-03T16:26:20.376Z,6.40
2018-01-03T16:28:48.718Z,6.40
2018-01-03T16:31:16.396Z,6.40
2018-01-03T16:33:43.975Z,6.40
2018-01-03T16:36:11.556Z,6.40
2018-01-03T16:38:39.227Z,6.40
2018-01-03T16:41:06.755Z,6.30
2018-01-03T16:43:34.605Z,6.30
2018-01-03T16:46:02.416Z,6.20
2018-01-03T16:48:29.946Z,6.20
2018-01-03T16:50:58.532Z,6.20
2018-01-03T16:53:26.298Z,6.10
2018-01-03T16:55:53.843Z,6.20
2018-01-03T16:58:21.384Z,6.10
2018-01-03T17:00:48.999Z,6.10
2018-01-03T17:03:16.531Z,6.10
2018-01-03T17:05:44.159Z,6.10
2018-01-03T17:08:11.915Z,6.20
2018-01-03T17:10:40.100Z,6.20
2018-01-03T17:13:07.637Z,6.10
2018-01-03T17:15:35.247Z,6.20
2018-01-03T17:18:02.787Z,6.20
2018-01-03T17:20:30.327Z,6.20
2018-01-03T17:22:58.818Z,6.30
2018-01-03T17:25:27.353Z,6.30
2018-01-03T17:27:54.946Z,6.30
2018-01-03T17:30:22.843Z,6.30
2018-01-03T17:32:50.418Z,6.30
2018-01-03T17:35:18.850Z,6.20
2018-01-03T17:37:46.886Z,6.20
2018-01-03T17:40:15.521Z,6.20
2018-01-03T17:42:43.820Z,6.10
2018-01-03T17:45:11.526Z,6.00
2018-01-03T17:47:39.182Z,6.00
2018-01-03T17:50:06.891Z,6.00
2018-01-03T17:52:34.767Z,6.00
2018-01-03T17:55:02.504Z,5.90
2018-01-03T17:57:30.100Z,5.90
2018-01-03T17:59:58.678Z,5.90
2018-01-03T18:02:26.366Z,5.90
2018-01-03T18:04:53.943Z,5.90
2018-01-03T18:07:21.528Z,5.80
2018-01-03T18:09:49.125Z,5.80
2018-01-03T18:12:16.775Z,5.80
2018-01-03T18:14:44.420Z,5.80
2018-01-03T18:17:12.019Z,5.80
2018-01-03T18:19:39.570Z,5.70
2018-01-03T18:22:07.254Z,5.70
2018-01-03T18:24:34.896Z,5.70
2018-01-03T18:27:02.467Z,5.70
2018-01-03T18:29:30.084Z,5.70
2018-01-03T18:31:57.724Z,5.70
2018-01-03T18:34:25.784Z,5.60
2018-01-03T18:36:53.418Z,5.60
2018-01-03T18:39:20.970Z,5.50
2018-01-03T18:41:48.507Z,5.50
2018-01-03T18:44:16.110Z,5.40
2018-01-03T18:46:43.637Z,5.40
2018-01-03T18:49:11.177Z,5.40
2018-01-03T18:51:38.754Z,5.30
2018-01-03T18:54:06.295Z,5.30
2018-01-03T18:56:33.838Z,5.40
2018-01-03T18:59:01.604Z,5.40
2018-01-03T19:01:29.139Z,5.40
2018-01-03T19:03:56.670Z,5.40
2018-01-03T19:06:24.238Z,5.50
2018-01-03T19:08:51.782Z,5.50
2018-01-03T19:11:20.085Z,5.50
2018-01-03T19:13:47.799Z,5.50
2018-01-03T19:16:15.328Z,5.50
2018-01-03T19:18:42.886Z,5.60
2018-01-03T19:21:11.232Z,5.60
2018-01-03T19:23:38.840Z,5.60
2018-01-03T19:26:07.134Z,5.60
2018-01-03T19:28:35.481Z,5.60
2018-01-03T19:31:03.021Z,5.60
2018-01-03T19:33:30.564Z,5.60
2018-01-03T19:35:58.934Z,5.70
2018-01-03T19:38:27.271Z,5.70
2018-01-03T19:40:54.844Z,5.70
2018-01-03T19:43:22.659Z,5.80
2018-01-03T19:45:50.213Z,5.80
2018-01-03T19:48:17.742Z,5.80
2018-01-03T19:50:45.328Z,5.90
2018-01-03T19:53:12.858Z,5.90
2018-01-03T19:55:40.399Z,5.90
2018-01-03T19:58:07.975Z,5.90
2018-01-03T20:00:35.499Z,5.90
2018-01-03T20:03:03.807Z,6.00
2018-01-03T20:05:31.422Z,6.00
2018-01-03T20:07:58.952Z,6.00
2018-01-03T20:10:26.494Z,6.10
2018-01-03T20:12:54.087Z,6.10
2018-01-03T20:15:21.642Z,6.10
2018-01-03T20:17:49.210Z,6.10
2018-01-03T20:20:16.835Z,6.10
2018-01-03T20:22:44.428Z,6.10
2018-01-03T20:25:11.981Z,6.10
2018-01-03T20:27:39.609Z,6.10
2018-01-03T20:30:07.153Z,6.20
2018-01-03T20:32:35.589Z,6.20
2018-01-03T20:35:03.266Z,6.20
2018-01-03T20:37:30.824Z,6.20
2018-01-03T20:39:58.498Z,6.30
2018-01-03T20:42:26.132Z,6.30
2018-01-03T20:44:54.474Z,6.30
2018-01-03T20:47:22.504Z,6.30
2018-01-03T20:49:51.338Z,6.40
2018-01-03T20:52:18.908Z,6.40
2018-01-03T20:54:46.486Z,6.40
2018-01-03T20:57:14.674Z,6.40
2018-01-03T20:59:42.857Z,6.40
2018-01-03T21:02:10.856Z,6.40
2018-01-03T21:04:39.238Z,6.40
2018-01-03T21:07:06.971Z,6.40
2018-01-03T21:09:34.907Z,6.60
2018-01-03T21:12:02.687Z,6.50
2018-01-03T21:14:30.262Z,6.50
2018-01-03T21:16:57.876Z,6.60
2018-01-03T21:19:26.336Z,6.60
2018-01-03T21:21:53.902Z,6.60
2018-01-03T21:24:21.427Z,6.60
2018-01-03T21:26:49.005Z,6.60
2018-01-03T21:29:16.539Z,6.60
2018-01-03T21:31:44.079Z,6.70
2018-01-03T21:34:11.760Z,6.70
2018-01-03T21:36:39.290Z,6.70
2018-01-03T21:39:06.819Z,6.70
2018-01-03T21:41:34.540Z,6.70
2018-01-03T21:44:02.079Z,6.80
2018-01-03T21:46:29.675Z,6.70
2018-01-03T21:48:57.381Z,6.70
2018-01-03T21:51:24.934Z,6.80
2018-01-03T21:53:52.487Z,6.80
2018-01-03T21:56:20.183Z,6.80
2018-01-03T21:58:47.715Z,6.80
2018-01-03T22:01:16.009Z,6.80
2018-01-03T22:03:44.355Z,6.80
2018-01-03T22:06:11.904Z,6.80
2018-01-03T22:08:39.435Z,6.80
2018-01-03T22:11:07.023Z,6.90
2018-01-03T22:13:34.559Z,6.90
2018-01-03T22:16:02.098Z,6.90
2018-01-03T22:18:29.673Z,6.90
2018-01-03T22:20:57.211Z,6.90
2018-01-03T22:23:24.754Z,6.90
2018-01-03T22:25:53.130Z,6.90
2018-01-03T22:28:21.441Z,6.90
2018-01-03T22:30:49.857Z,6.90
2018-01-03T22:33:17.563Z,6.90
2018-01-03T22:35:45.103Z,6.90
2018-01-03T22:38:12.635Z,6.90
2018-01-03T22:40:41.882Z,7.00
2018-01-03T22:43:09.439Z,7.00
2018-01-03T22:45:37.848Z,7.00
2018-01-03T22:48:05.723Z,6.90
2018-01-03T22:50:33.257Z,7.00
2018-01-03T22:53:00.787Z,7.00
2018-01-03T22:55:28.492Z,7.00
2018-01-03T22:57:56.023Z,6.90
2018-01-03T23:00:23.577Z,7.00
2018-01-03T23:02:51.180Z,7.00
2018-01-03T23:05:18.734Z,7.00
2018-01-03T23:07:46.279Z,7.00
2018-01-03T23:10:15.658Z,7.00
2018-01-03T23:12:43.960Z,7.00
2018-01-03T23:15:12.281Z,7.00
2018-01-03T23:17:39.983Z,7.00
2018-01-03T23:20:07.528Z,7.00
2018-01-03T23:22:35.057Z,7.00
2018-01-03T23:25:02.635Z,7.00
2018-01-03T23:27:30.963Z,7.00
2018-01-03T23:29:58.524Z,7.00
2018-01-03T23:32:26.104Z,7.00
2018-01-03T23:34:53.635Z,7.00
2018-01-03T23:37:22.672Z,7.00
2018-01-03T23:39:50.251Z,7.00
2018-01-03T23:42:17.784Z,7.10
2018-01-03T23:44:46.087Z,7.10
2018-01-03T23:47:14.518Z,7.00
2018-01-03T23:49:42.100Z,7.00
2018-01-03T23:52:09.644Z,7.00
2018-01-03T23:54:37.313Z,7.00
2018-01-03T23:57:04.854Z,7.00
2018-01-03T23:59:33.157Z,7.00
